Time;durP1;ratioP1;P1;durP2;ratioP2;P2;SDS_P1;SDS_P2;PMS_P1;PMS_P2;Temp;Humidity;BMP_temperature;BMP_pressure;BME280_temperature;BME280_humidity;BME280_pressure;Samples;Min_cycle;Max_cycle;Signal;HPM_P1;HPM_P2
2021/12/11 00:00:31;;;;;;;19.73;7.85;;;;;;;-148.16;100.00;58328.31;4885410;29;20053;-71
2021/12/11 00:03:35;;;;;;;23.38;8.00;;;;;;;-148.16;100.00;58328.31;4866540;29;20053;-74
2021/12/11 00:06:38;;;;;;;25.30;8.50;;;;;;;-148.16;100.00;58328.31;4880028;29;20053;-72
2021/12/11 00:09:32;;;;;;;22.52;8.70;;;;;;;-148.16;100.00;58328.31;4879799;29;20060;-73
2021/12/11 00:12:34;;;;;;;21.92;8.98;;;;;;;-148.16;100.00;58328.31;4880822;29;20045;-72
2021/12/11 00:15:28;;;;;;;20.30;8.68;;;;;;;-148.16;100.00;58328.31;4882313;29;20048;-70
2021/12/11 00:18:19;;;;;;;18.92;7.43;;;;;;;-148.16;100.00;58328.31;4880808;29;20049;-72
2021/12/11 00:21:14;;;;;;;19.13;8.27;;;;;;;-148.16;100.00;58328.31;4880592;29;20053;-70
2021/12/11 00:24:08;;;;;;;20.02;7.55;;;;;;;-148.16;100.00;58328.31;4866587;29;20068;-72
2021/12/11 00:27:05;;;;;;;19.30;8.57;;;;;;;-148.16;100.00;58328.31;4881064;29;20068;-72
2021/12/11 00:29:52;;;;;;;20.23;7.55;;;;;;;-148.16;100.00;58328.31;4885748;29;20049;-71
2021/12/11 00:32:39;;;;;;;16.02;7.13;;;;;;;-148.16;100.00;58328.31;4881768;29;20057;-71
2021/12/11 00:35:31;;;;;;;18.90;8.15;;;;;;;-148.16;100.00;58328.31;4881724;29;20053;-71
2021/12/11 00:38:22;;;;;;;17.83;7.97;;;;;;;-148.16;100.00;58328.31;4873349;29;20045;-72
2021/12/11 00:41:14;;;;;;;19.13;7.35;;;;;;;-148.16;100.00;58328.31;4885640;29;20044;-72
2021/12/11 00:44:01;;;;;;;20.10;8.00;;;;;;;-148.16;100.00;58328.31;4881668;29;20044;-72
2021/12/11 00:46:47;;;;;;;18.38;7.68;;;;;;;-148.16;100.00;58328.31;4881227;29;20045;-71
2021/12/11 00:49:32;;;;;;;17.85;7.75;;;;;;;-148.16;100.00;58328.31;4873086;29;20053;-72
2021/12/11 00:52:26;;;;;;;20.58;6.97;;;;;;;-148.16;100.00;58328.31;4886289;29;20132;-72
2021/12/11 00:55:28;;;;;;;20.30;7.57;;;;;;;-148.16;100.00;58328.31;4883212;29;20049;-71
2021/12/11 00:58:24;;;;;;;17.30;7.40;;;;;;;-148.16;100.00;58328.31;4884059;29;20057;-70
2021/12/11 01:01:16;;;;;;;16.35;7.20;;;;;;;-148.16;100.00;58328.31;4886543;29;20044;-72
2021/12/11 01:04:07;;;;;;;18.35;7.70;;;;;;;-148.16;100.00;58328.31;4881968;29;20049;-71
2021/12/11 01:07:01;;;;;;;20.95;8.50;;;;;;;-148.16;100.00;58328.31;4884104;29;20053;-72
2021/12/11 01:09:55;;;;;;;16.67;7.00;;;;;;;-148.16;100.00;58328.31;4889120;29;20381;-71
2021/12/11 01:12:51;;;;;;;18.98;7.35;;;;;;;-148.16;100.00;58328.31;4872240;29;20408;-73
2021/12/11 01:15:47;;;;;;;19.27;7.82;;;;;;;-148.16;100.00;58328.31;4871670;29;20405;-72
2021/12/11 01:18:35;;;;;;;18.55;6.97;;;;;;;-148.16;100.00;58328.31;4880502;29;20053;-72
2021/12/11 01:21:33;;;;;;;21.30;6.88;;;;;;;-148.16;100.00;58328.31;4879283;29;20409;-73
2021/12/11 01:24:42;;;;;;;18.27;7.10;;;;;;;-148.16;100.00;58328.31;4866151;29;20049;-73
2021/12/11 01:27:28;;;;;;;20.05;8.10;;;;;;;-148.16;100.00;58328.31;4877841;29;20489;-72
2021/12/11 01:30:19;;;;;;;17.45;6.63;;;;;;;-148.16;100.00;58328.31;4879052;29;20061;-72
2021/12/11 01:33:08;;;;;;;19.15;7.85;;;;;;;-148.16;100.00;58328.31;4878026;29;20057;-74
2021/12/11 01:35:54;;;;;;;19.70;7.65;;;;;;;-148.16;100.00;58328.31;4883441;29;20049;-72
2021/12/11 01:38:41;;;;;;;13.52;6.55;;;;;;;-148.16;100.00;58328.31;4883456;29;20057;-72
2021/12/11 01:41:28;;;;;;;13.95;5.97;;;;;;;-148.16;100.00;58328.31;4882678;29;20045;-75
2021/12/11 01:44:36;;;;;;;13.95;6.13;;;;;;;-148.16;100.00;58328.31;4883811;29;20065;-71
2021/12/11 01:47:29;;;;;;;19.80;7.43;;;;;;;-148.16;100.00;58328.31;4879153;29;20060;-71
2021/12/11 01:50:24;;;;;;;17.13;6.07;;;;;;;-148.16;100.00;58328.31;4884132;29;20048;-70
2021/12/11 01:53:19;;;;;;;14.18;6.15;;;;;;;-148.16;100.00;58328.31;4878725;29;20060;-70
2021/12/11 01:56:12;;;;;;;16.55;7.38;;;;;;;-148.16;100.00;58328.31;4878641;29;20480;-73
2021/12/11 01:59:04;;;;;;;20.65;7.30;;;;;;;-148.16;100.00;58328.31;4883088;29;20048;-70
2021/12/11 02:02:03;;;;;;;16.67;6.30;;;;;;;-148.16;100.00;58328.31;4878538;29;20049;-73
2021/12/11 02:04:55;;;;;;;19.00;7.50;;;;;;;-148.16;100.00;58328.31;4883257;29;20049;-73
2021/12/11 02:07:45;;;;;;;19.52;7.65;;;;;;;-148.16;100.00;58328.31;4877175;29;20065;-72
2021/12/11 02:10:52;;;;;;;16.08;5.93;;;;;;;-148.16;100.00;58328.31;4875233;29;20061;-71
2021/12/11 02:13:48;;;;;;;18.38;6.82;;;;;;;-148.16;100.00;58328.31;4859964;29;20053;-73
2021/12/11 02:16:44;;;;;;;16.77;6.43;;;;;;;-148.16;100.00;58328.31;4866205;29;20049;-70
2021/12/11 02:19:36;;;;;;;15.75;6.63;;;;;;;-148.16;100.00;58328.31;4882325;29;20049;-70
2021/12/11 02:22:28;;;;;;;18.13;7.25;;;;;;;-148.16;100.00;58328.31;4878049;29;20424;-73
2021/12/11 02:25:23;;;;;;;14.07;5.85;;;;;;;-148.16;100.00;58328.31;4877921;29;20053;-72
2021/12/11 02:28:16;;;;;;;12.85;5.80;;;;;;;-148.16;100.00;58328.31;4870645;29;20052;-72
2021/12/11 02:31:10;;;;;;;20.67;6.65;;;;;;;-148.16;100.00;58328.31;4879535;29;20057;-72
2021/12/11 02:34:07;;;;;;;16.88;6.43;;;;;;;-148.16;100.00;58328.31;4878422;29;20497;-70
2021/12/11 02:37:17;;;;;;;15.60;6.65;;;;;;;-148.16;100.00;58328.31;4881968;29;20041;-71
2021/12/11 02:40:19;;;;;;;13.48;5.35;;;;;;;-148.16;100.00;58328.31;4884792;29;20057;-70
2021/12/11 02:43:28;;;;;;;16.13;6.07;;;;;;;-148.16;100.00;58328.31;4878931;29;20053;-72
2021/12/11 02:46:20;;;;;;;19.27;7.28;;;;;;;-148.16;100.00;58328.31;4875077;29;20049;-72
2021/12/11 02:49:27;;;;;;;18.75;6.57;;;;;;;-148.16;100.00;58328.31;4878852;29;20053;-72
2021/12/11 02:52:18;;;;;;;16.40;6.35;;;;;;;-148.16;100.00;58328.31;4878781;29;20057;-72
2021/12/11 02:55:28;;;;;;;18.77;6.80;;;;;;;-148.16;100.00;58328.31;4878863;29;20053;-73
2021/12/11 02:58:36;;;;;;;17.40;6.60;;;;;;;-148.16;100.00;58328.31;4877779;29;20121;-72
2021/12/11 03:01:33;;;;;;;17.35;6.85;;;;;;;-148.16;100.00;58328.31;4878701;29;20056;-72
2021/12/11 03:04:32;;;;;;;16.38;7.18;;;;;;;-148.16;100.00;58328.31;4878624;29;20053;-71
2021/12/11 03:07:23;;;;;;;19.55;7.50;;;;;;;-148.16;100.00;58328.31;4883278;29;20048;-72
2021/12/11 03:10:11;;;;;;;;;;;;;;;-148.16;100.00;58328.31;4878357;29;20052;-70
2021/12/11 03:12:56;;;;;;;12.85;5.35;;;;;;;-148.16;100.00;58328.31;4878798;29;20284;-70
2021/12/11 03:15:42;;;;;;;19.35;7.78;;;;;;;-148.16;100.00;58328.31;4878655;29;20053;-70
2021/12/11 03:18:28;;;;;;;21.55;7.45;;;;;;;-148.16;100.00;58328.31;4878560;29;20053;-70
2021/12/11 03:21:14;;;;;;;19.67;7.47;;;;;;;-148.16;100.00;58328.31;4878626;29;20496;-72
2021/12/11 03:24:00;;;;;;;24.65;9.13;;;;;;;-148.16;100.00;58328.31;4877644;29;20049;-72
2021/12/11 03:26:51;;;;;;;23.23;7.82;;;;;;;-148.16;100.00;58328.31;4882999;29;20061;-72
2021/12/11 03:29:39;;;;;;;15.93;6.82;;;;;;;-148.16;100.00;58328.31;4876426;29;20049;-71
2021/12/11 03:32:25;;;;;;;22.15;7.97;;;;;;;-148.16;100.00;58328.31;4882575;29;20045;-72
2021/12/11 03:35:11;;;;;;;20.55;8.63;;;;;;;-148.16;100.00;58328.31;4869433;29;20515;-72
2021/12/11 03:37:58;;;;;;;17.67;6.97;;;;;;;-148.16;100.00;58328.31;4877307;29;20053;-74
2021/12/11 03:40:44;;;;;;;22.40;8.40;;;;;;;-148.16;100.00;58328.31;4876777;29;20045;-72
2021/12/11 03:43:31;;;;;;;26.05;9.15;;;;;;;-148.16;100.00;58328.31;4876450;29;20049;-74
2021/12/11 03:46:18;;;;;;;25.15;8.98;;;;;;;-148.16;100.00;58328.31;4863767;29;20052;-71
2021/12/11 03:49:10;;;;;;;20.67;7.68;;;;;;;-148.16;100.00;58328.31;4876808;29;20061;-73
2021/12/11 03:51:56;;;;;;;20.42;7.97;;;;;;;-148.16;100.00;58328.31;4869086;29;20053;-76
2021/12/11 03:54:45;;;;;;;24.83;8.27;;;;;;;-148.16;100.00;58328.31;4877641;29;20057;-74
2021/12/11 03:57:31;;;;;;;23.25;8.32;;;;;;;-148.16;100.00;58328.31;4877649;29;20053;-71
2021/12/11 04:00:20;;;;;;;17.90;6.47;;;;;;;-148.16;100.00;58328.31;4877074;29;20485;-73
2021/12/11 04:03:08;;;;;;;21.30;7.25;;;;;;;-148.16;100.00;58328.31;4876715;29;20480;-73
2021/12/11 04:05:55;;;;;;;23.60;8.55;;;;;;;-148.16;100.00;58328.31;4883802;29;20045;-75
2021/12/11 04:08:43;;;;;;;25.48;7.72;;;;;;;-148.16;100.00;58328.31;4883191;29;20057;-72
2021/12/11 04:11:31;;;;;;;21.83;8.30;;;;;;;-148.16;100.00;58328.31;4880406;29;20389;-70
2021/12/11 04:14:28;;;;;;;25.77;9.25;;;;;;;-148.16;100.00;58328.31;4872130;29;20049;-75
2021/12/11 04:17:21;;;;;;;20.45;8.05;;;;;;;-148.16;100.00;58328.31;4872716;29;20053;-73
2021/12/11 04:20:12;;;;;;;20.02;7.75;;;;;;;-148.16;100.00;58328.31;4881107;29;20052;-70
2021/12/11 04:22:58;;;;;;;23.67;8.45;;;;;;;-148.16;100.00;58328.31;4878662;29;20045;-71
2021/12/11 04:25:48;;;;;;;22.17;7.72;;;;;;;-148.16;100.00;58328.31;4882556;29;20045;-70
2021/12/11 04:28:37;;;;;;;18.38;8.32;;;;;;;-148.16;100.00;58328.31;4883085;29;20424;-73
2021/12/11 04:31:27;;;;;;;18.00;8.13;;;;;;;-148.16;100.00;58328.31;4875375;29;20037;-71
2021/12/11 04:34:17;;;;;;;18.65;7.07;;;;;;;-148.16;100.00;58328.31;4883730;29;20140;-71
2021/12/11 04:37:12;;;;;;;16.52;6.22;;;;;;;-148.16;100.00;58328.31;4881271;29;20045;-73
2021/12/11 04:40:10;;;;;;;25.73;8.35;;;;;;;-148.16;100.00;58328.31;4878092;29;20061;-75
2021/12/11 04:45:50;;;;;;;20.45;8.77;;;;;;;-148.16;100.00;58328.31;4881106;29;20045;-72
2021/12/11 04:48:44;;;;;;;32.05;10.55;;;;;;;-148.16;100.00;58328.31;4880546;29;20049;-76
2021/12/11 04:52:00;;;;;;;24.30;8.73;;;;;;;-148.16;100.00;58328.31;4881096;29;20404;-74
2021/12/11 04:55:06;;;;;;;24.98;9.10;;;;;;;-148.16;100.00;58328.31;4872440;29;20044;-73
2021/12/11 05:04:05;;;;;;;27.80;9.57;;;;;;;-148.16;100.00;58328.31;4872414;29;20045;-74
2021/12/11 05:09:59;;;;;;;35.03;11.48;;;;;;;-148.16;100.00;58328.31;4881178;29;20053;-73
2021/12/11 05:12:50;;;;;;;38.67;12.05;;;;;;;-148.16;100.00;58328.31;4879932;29;20041;-73
2021/12/11 05:15:39;;;;;;;34.17;11.57;;;;;;;-148.16;100.00;58328.31;4872229;29;20056;-74
2021/12/11 05:18:30;;;;;;;43.85;12.88;;;;;;;-148.16;100.00;58328.31;4885271;29;20053;-75
2021/12/11 05:21:18;;;;;;;35.20;11.18;;;;;;;-148.16;100.00;58328.31;4885205;29;20053;-72
2021/12/11 05:24:05;;;;;;;26.05;10.27;;;;;;;-148.16;100.00;58328.31;4880520;29;20044;-74
2021/12/11 05:26:52;;;;;;;22.33;9.48;;;;;;;-148.16;100.00;58328.31;4877313;29;20049;-71
2021/12/11 05:29:39;;;;;;;25.15;8.60;;;;;;;-148.16;100.00;58328.31;4879201;29;20045;-72
2021/12/11 05:32:26;;;;;;;26.13;8.80;;;;;;;-148.16;100.00;58328.31;4865206;29;20061;-74
2021/12/11 05:35:15;;;;;;;25.70;9.02;;;;;;;-148.16;100.00;58328.31;4879113;29;20049;-73
2021/12/11 05:38:02;;;;;;;32.08;10.60;;;;;;;-148.16;100.00;58328.31;4882114;29;20064;-73
2021/12/11 05:40:52;;;;;;;28.48;9.70;;;;;;;-148.16;100.00;58328.31;4880347;29;20052;-73
2021/12/11 05:43:40;;;;;;;26.77;10.43;;;;;;;-148.16;100.00;58328.31;4878697;29;20057;-73
2021/12/11 05:46:26;;;;;;;31.92;10.40;;;;;;;-148.16;100.00;58328.31;4878836;29;20052;-72
2021/12/11 05:49:13;;;;;;;26.73;8.70;;;;;;;-148.16;100.00;58328.31;4878376;29;20057;-71
2021/12/11 05:52:04;;;;;;;25.98;9.23;;;;;;;-148.16;100.00;58328.31;4877485;29;20045;-71
2021/12/11 05:54:51;;;;;;;20.42;7.40;;;;;;;-148.16;100.00;58328.31;4882957;29;20064;-73
2021/12/11 05:57:37;;;;;;;20.85;7.93;;;;;;;-148.16;100.00;58328.31;4878749;29;20069;-73
2021/12/11 06:00:29;;;;;;;23.00;8.13;;;;;;;-148.16;100.00;58328.31;4878946;29;20040;-72
2021/12/11 06:03:16;;;;;;;22.23;7.50;;;;;;;-148.16;100.00;58328.31;4878050;29;20048;-71
2021/12/11 06:06:02;;;;;;;27.10;8.68;;;;;;;-148.16;100.00;58328.31;4878475;29;20045;-72
2021/12/11 06:08:48;;;;;;;25.67;8.73;;;;;;;-148.16;100.00;58328.31;4878441;29;20057;-74
2021/12/11 06:11:35;;;;;;;21.15;8.27;;;;;;;-148.16;100.00;58328.31;4882845;29;20045;-75
2021/12/11 06:14:22;;;;;;;21.83;8.80;;;;;;;-148.16;100.00;58328.31;4878416;29;20053;-71
2021/12/11 06:17:11;;;;;;;23.50;7.22;;;;;;;-148.16;100.00;58328.31;4877226;29;20041;-72
2021/12/11 06:19:59;;;;;;;23.38;8.20;;;;;;;-148.16;100.00;58328.31;4878074;29;20408;-73
2021/12/11 06:22:45;;;;;;;23.48;8.93;;;;;;;-148.16;100.00;58328.31;4882734;29;20049;-73
2021/12/11 06:25:33;;;;;;;28.33;9.32;;;;;;;-148.16;100.00;58328.31;4877604;29;20053;-73
2021/12/11 06:28:18;;;;;;;21.23;8.20;;;;;;;-148.16;100.00;58328.31;4878763;29;20049;-74
2021/12/11 06:31:05;;;;;;;26.73;9.25;;;;;;;-148.16;100.00;58328.31;4883446;29;20052;-72
2021/12/11 06:33:52;;;;;;;23.27;9.15;;;;;;;-148.16;100.00;58328.31;4879148;29;20052;-72
2021/12/11 06:36:40;;;;;;;19.70;7.55;;;;;;;-148.16;100.00;58328.31;4879079;29;20045;-73
2021/12/11 06:39:26;;;;;;;26.50;8.05;;;;;;;-148.16;100.00;58328.31;4878827;29;20057;-73
2021/12/11 06:42:12;;;;;;;21.75;8.10;;;;;;;-148.16;100.00;58328.31;4878828;29;20369;-70
2021/12/11 06:44:57;;;;;;;24.02;8.40;;;;;;;-148.16;100.00;58328.31;4878534;29;20045;-72
2021/12/11 06:47:43;;;;;;;19.23;7.53;;;;;;;-148.16;100.00;58328.31;4878353;29;20049;-68
2021/12/11 06:50:30;;;;;;;22.55;8.00;;;;;;;-148.16;100.00;58328.31;4877606;29;20053;-68
2021/12/11 06:53:28;;;;;;;20.25;7.30;;;;;;;-148.16;100.00;58328.31;4883208;29;20052;-69
2021/12/11 06:56:19;;;;;;;19.83;7.68;;;;;;;-148.16;100.00;58328.31;4878776;29;20057;-74
2021/12/11 06:59:05;;;;;;;18.67;6.30;;;;;;;-148.16;100.00;58328.31;4877916;29;20048;-74
2021/12/11 07:01:51;;;;;;;16.23;7.00;;;;;;;-148.16;100.00;58328.31;4868862;29;20048;-73
2021/12/11 07:04:37;;;;;;;17.65;7.65;;;;;;;-148.16;100.00;58328.31;4868417;29;20053;-73
2021/12/11 07:07:27;;;;;;;20.75;7.07;;;;;;;-148.16;100.00;58328.31;4860448;29;20061;-70
2021/12/11 07:10:17;;;;;;;18.65;7.82;;;;;;;-148.16;100.00;58328.31;4858468;29;20054;-70
2021/12/11 07:13:04;;;;;;;18.03;6.10;;;;;;;-148.16;100.00;58328.31;4867714;29;20160;-71
2021/12/11 07:15:50;;;;;;;14.13;5.57;;;;;;;-148.16;100.00;58328.31;4863685;29;20044;-69
2021/12/11 07:18:37;;;;;;;16.55;6.05;;;;;;;-148.16;100.00;58328.31;4870770;29;20057;-71
2021/12/11 07:21:28;;;;;;;12.85;5.22;;;;;;;-148.16;100.00;58328.31;4871497;29;20053;-70
2021/12/11 07:24:14;;;;;;;15.43;5.80;;;;;;;-148.16;100.00;58328.31;4872603;29;20049;-73
2021/12/11 07:27:03;;;;;;;21.52;8.15;;;;;;;-148.16;100.00;58328.31;4863326;29;20057;-68
2021/12/11 07:29:48;;;;;;;19.42;7.65;;;;;;;-148.16;100.00;58328.31;4867671;29;20049;-69
2021/12/11 07:32:34;;;;;;;17.13;6.72;;;;;;;-148.16;100.00;58328.31;4871694;29;20045;-67
2021/12/11 07:35:21;;;;;;;19.65;7.18;;;;;;;-148.16;100.00;58328.31;4875850;29;20057;-69
2021/12/11 07:38:08;;;;;;;19.90;6.85;;;;;;;-148.16;100.00;58328.31;4871205;29;20054;-68
2021/12/11 07:40:58;;;;;;;18.70;6.70;;;;;;;-148.16;100.00;58328.31;4873247;29;20041;-71
2021/12/11 07:43:45;;;;;;;17.00;6.13;;;;;;;-148.16;100.00;58328.31;4855190;29;20072;-70
2021/12/11 07:46:32;;;;;;;20.73;9.10;;;;;;;-148.16;100.00;58328.31;4874358;29;20045;-69
2021/12/11 07:49:18;;;;;;;16.65;6.78;;;;;;;-148.16;100.00;58328.31;4874826;29;20045;-67
2021/12/11 07:52:05;;;;;;;21.67;8.55;;;;;;;-148.16;100.00;58328.31;4878536;29;20045;-71
2021/12/11 07:54:51;;;;;;;19.17;7.25;;;;;;;-148.16;100.00;58328.31;4879255;29;20049;-69
2021/12/11 07:57:38;;;;;;;16.45;5.93;;;;;;;-148.16;100.00;58328.31;4882820;29;20057;-59
2021/12/11 08:00:25;;;;;;;13.32;5.78;;;;;;;-148.16;100.00;58328.31;4865958;29;20049;-66
2021/12/11 08:03:13;;;;;;;17.77;6.65;;;;;;;-148.16;100.00;58328.31;4880474;29;20053;-71
2021/12/11 08:05:59;;;;;;;20.30;6.85;;;;;;;-148.16;100.00;58328.31;4873276;29;20757;-68
2021/12/11 08:08:46;;;;;;;15.50;6.30;;;;;;;-148.16;100.00;58328.31;4878839;29;20049;-65
2021/12/11 08:11:32;;;;;;;18.73;6.72;;;;;;;-148.16;100.00;58328.31;4876310;29;20045;-67
2021/12/11 08:14:19;;;;;;;16.45;5.38;;;;;;;-148.16;100.00;58328.31;4878928;29;20054;-69
2021/12/11 08:17:06;;;;;;;15.73;7.03;;;;;;;-148.16;100.00;58328.31;4878430;29;20053;-70
2021/12/11 08:19:52;;;;;;;11.13;5.22;;;;;;;-148.16;100.00;58328.31;4880776;29;20056;-72
2021/12/11 08:22:38;;;;;;;9.45;3.83;;;;;;;-148.16;100.00;58328.31;4880021;29;20528;-69
2021/12/11 08:25:26;;;;;;;9.10;4.45;;;;;;;-148.16;100.00;58328.31;4879121;29;20522;-69
2021/12/11 08:28:16;;;;;;;14.50;5.75;;;;;;;-148.16;100.00;58328.31;4880707;29;20045;-71
2021/12/11 08:31:03;;;;;;;14.00;5.25;;;;;;;-148.16;100.00;58328.31;4869832;29;20053;-70
2021/12/11 08:33:49;;;;;;;10.25;4.38;;;;;;;-148.16;100.00;58328.31;4879748;29;20056;-74
2021/12/11 08:36:35;;;;;;;13.82;5.68;;;;;;;-148.16;100.00;58328.31;4882591;29;20484;-68
2021/12/11 08:39:22;;;;;;;14.45;5.68;;;;;;;-148.16;100.00;58328.31;4879305;29;20049;-73
2021/12/11 08:42:11;;;;;;;14.25;6.40;;;;;;;-148.16;100.00;58328.31;4872900;29;20508;-70
2021/12/11 08:45:05;;;;;;;17.30;5.95;;;;;;;-148.16;100.00;58328.31;4879234;29;20041;-68
2021/12/11 08:47:57;;;;;;;13.65;5.80;;;;;;;-148.16;100.00;58328.31;4864102;29;20054;-67
2021/12/11 08:50:44;;;;;;;18.90;6.95;;;;;;;-148.16;100.00;58328.31;4866621;29;20045;-71
2021/12/11 08:53:31;;;;;;;22.00;8.10;;;;;;;-148.16;100.00;58328.31;4879314;29;20045;-73
2021/12/11 08:56:18;;;;;;;22.15;7.43;;;;;;;-148.16;100.00;58328.31;4888316;29;20045;-71
2021/12/11 08:59:05;;;;;;;18.50;7.25;;;;;;;-148.16;100.00;58328.31;4874890;29;20496;-68
2021/12/11 09:01:54;;;;;;;21.73;7.03;;;;;;;-148.16;100.00;58328.31;4873770;29;20037;-71
2021/12/11 09:04:58;;;;;;;18.13;7.80;;;;;;;-148.16;100.00;58328.31;4882202;29;20049;-73
2021/12/11 09:07:58;;;;;;;19.08;7.45;;;;;;;-148.16;100.00;58328.31;4885090;29;20045;-70
2021/12/11 09:10:48;;;;;;;17.23;6.88;;;;;;;-148.16;100.00;58328.31;4884215;29;20052;-69
2021/12/11 09:13:36;;;;;;;20.63;8.07;;;;;;;-148.16;100.00;58328.31;4895919;29;20048;-71
2021/12/11 09:16:28;;;;;;;17.58;7.90;;;;;;;-148.16;100.00;58328.31;4883411;29;20041;-56
2021/12/11 09:19:21;;;;;;;23.70;9.05;;;;;;;-148.16;100.00;58328.31;4884481;29;20064;-71
2021/12/11 09:22:11;;;;;;;24.58;9.13;;;;;;;-148.16;100.00;58328.31;4883472;29;20048;-69
2021/12/11 09:25:12;;;;;;;24.05;9.10;;;;;;;-148.16;100.00;58328.31;4875451;29;20148;-70
2021/12/11 09:28:26;;;;;;;14.52;6.63;;;;;;;-148.16;100.00;58328.31;4896001;29;20048;-39
2021/12/11 09:31:26;;;;;;;22.00;8.90;;;;;;;-148.16;100.00;58328.31;4895662;29;20053;-64
2021/12/11 09:34:17;;;;;;;23.75;9.23;;;;;;;-148.16;100.00;58328.31;4882497;29;20086;-69
2021/12/11 09:37:05;;;;;;;24.00;9.93;;;;;;;-148.16;100.00;58328.31;4895430;29;20041;-67
2021/12/11 09:39:56;;;;;;;22.00;8.02;;;;;;;-148.16;100.00;58328.31;4894781;29;20053;-69
2021/12/11 09:42:41;;;;;;;21.70;8.27;;;;;;;-148.16;100.00;58328.31;4895455;29;20056;-53
2021/12/11 09:45:40;;;;;;;19.67;8.10;;;;;;;-148.16;100.00;58328.31;4883709;29;20401;-72
2021/12/11 09:48:26;;;;;;;20.55;8.38;;;;;;;-148.16;100.00;58328.31;4878577;29;20048;-71
2021/12/11 09:51:14;;;;;;;18.85;8.60;;;;;;;-148.16;100.00;58328.31;4877985;29;20484;-68
2021/12/11 09:54:07;;;;;;;20.20;7.70;;;;;;;-148.16;100.00;58328.31;4878693;29;20060;-70
2021/12/11 09:56:59;;;;;;;19.58;7.97;;;;;;;-148.16;100.00;58328.31;4878471;29;20388;-71
2021/12/11 09:59:47;;;;;;;21.35;8.68;;;;;;;-148.16;100.00;58328.31;4876297;29;20049;-69
2021/12/11 10:02:33;;;;;;;19.60;8.02;;;;;;;-148.16;100.00;58328.31;4876003;29;20381;-70
2021/12/11 10:05:35;;;;;;;21.70;8.75;;;;;;;-148.16;100.00;58328.31;4876273;29;20053;-70
2021/12/11 10:08:36;;;;;;;18.00;6.95;;;;;;;-148.16;100.00;58328.31;4863476;29;20049;-69
2021/12/11 10:11:27;;;;;;;16.00;7.20;;;;;;;-148.16;100.00;58328.31;4876948;29;20048;-71
2021/12/11 10:14:17;;;;;;;15.70;7.05;;;;;;;-148.16;100.00;58328.31;4876452;29;20388;-71
2021/12/11 10:17:21;;;;;;;13.90;6.18;;;;;;;-148.16;100.00;58328.31;4878729;29;20057;-69
2021/12/11 10:20:16;;;;;;;18.08;6.47;;;;;;;-148.16;100.00;58328.31;4870240;29;20053;-71
2021/12/11 10:23:06;;;;;;;20.58;7.93;;;;;;;-148.16;100.00;58328.31;4877520;29;20053;-69
2021/12/11 10:25:52;;;;;;;18.23;6.97;;;;;;;-148.16;100.00;58328.31;4878592;29;20049;-71
2021/12/11 10:28:42;;;;;;;15.70;6.35;;;;;;;-148.16;100.00;58328.31;4879444;29;20045;-70
2021/12/11 10:31:35;;;;;;;16.10;6.88;;;;;;;-148.16;100.00;58328.31;4878882;29;20053;-70
2021/12/11 10:34:27;;;;;;;19.92;8.25;;;;;;;-148.16;100.00;58328.31;4858023;29;20045;-69
2021/12/11 10:37:41;;;;;;;21.20;8.80;;;;;;;-148.16;100.00;58328.31;4878593;29;20049;-71
2021/12/11 10:40:33;;;;;;;20.60;8.27;;;;;;;-148.16;100.00;58328.31;4884564;29;20045;-71
2021/12/11 10:43:24;;;;;;;21.70;8.85;;;;;;;-148.16;100.00;58328.31;4879461;29;20401;-70
2021/12/11 10:46:13;;;;;;;22.17;9.43;;;;;;;-148.16;100.00;58328.31;4870890;29;20048;-70
2021/12/11 10:48:59;;;;;;;21.30;7.97;;;;;;;-148.16;100.00;58328.31;4878544;29;20056;-69
2021/12/11 10:51:53;;;;;;;20.92;8.43;;;;;;;-148.16;100.00;58328.31;4879529;29;20045;-70
2021/12/11 10:54:39;;;;;;;21.13;8.35;;;;;;;-148.16;100.00;58328.31;4883452;29;20056;-71
2021/12/11 10:57:25;;;;;;;23.15;7.78;;;;;;;-148.16;100.00;58328.31;4876971;29;20041;-73
2021/12/11 11:00:40;;;;;;;17.40;7.95;;;;;;;-148.16;100.00;58328.31;4878106;29;20061;-68
2021/12/11 11:03:28;;;;;;;21.88;7.75;;;;;;;-148.16;100.00;58328.31;4876816;29;20057;-69
2021/12/11 11:06:14;;;;;;;21.17;8.98;;;;;;;-148.16;100.00;58328.31;4877013;29;20045;-67
2021/12/11 11:09:01;;;;;;;23.63;9.10;;;;;;;-148.16;100.00;58328.31;4878950;29;20057;-67
2021/12/11 11:11:49;;;;;;;22.60;8.85;;;;;;;-148.16;100.00;58328.31;4861545;29;20057;-68
2021/12/11 11:14:35;;;;;;;21.52;8.68;;;;;;;-148.16;100.00;58328.31;4866663;29;20057;-67
2021/12/11 11:17:29;;;;;;;22.00;8.80;;;;;;;-148.16;100.00;58328.31;4865611;29;20065;-65
2021/12/11 11:20:21;;;;;;;21.83;8.82;;;;;;;-148.16;100.00;58328.31;4869108;29;20053;-68
2021/12/11 11:23:08;;;;;;;21.92;9.32;;;;;;;-148.16;100.00;58328.31;4864355;29;20046;-67
2021/12/11 11:25:57;;;;;;;20.63;8.35;;;;;;;-148.16;100.00;58328.31;4873092;29;20053;-68
2021/12/11 11:28:43;;;;;;;24.33;8.48;;;;;;;-148.16;100.00;58328.31;4872936;29;20056;-68
2021/12/11 11:31:34;;;;;;;20.25;8.20;;;;;;;-148.16;100.00;58328.31;4881300;29;20503;-69
2021/12/11 11:34:22;;;;;;;24.63;9.20;;;;;;;-148.16;100.00;58328.31;4881538;29;20053;-66
2021/12/11 11:37:22;;;;;;;24.23;9.45;;;;;;;-148.16;100.00;58328.31;4880395;29;20049;-68
2021/12/11 11:40:13;;;;;;;21.42;8.80;;;;;;;-148.16;100.00;58328.31;4873410;29;20057;-68
2021/12/11 11:42:59;;;;;;;23.05;7.53;;;;;;;-148.16;100.00;58328.31;4882245;29;20049;-67
2021/12/11 11:45:52;;;;;;;13.57;6.65;;;;;;;-148.16;100.00;58328.31;4881033;29;20049;-66
2021/12/11 11:48:43;;;;;;;14.23;6.68;;;;;;;-148.16;100.00;58328.31;4878506;29;20764;-69
2021/12/11 11:51:36;;;;;;;58.05;24.15;;;;;;;-148.16;100.00;58328.31;4872143;29;20053;-58
2021/12/11 11:54:26;;;;;;;43.22;17.23;;;;;;;-148.16;100.00;58328.31;4878813;29;20053;-61
2021/12/11 11:57:19;;;;;;;24.05;10.50;;;;;;;-148.16;100.00;58328.31;4879938;29;20049;-58
2021/12/11 12:00:14;;;;;;;19.98;8.98;;;;;;;-148.16;100.00;58328.31;4882867;29;20416;-64
2021/12/11 12:03:00;;;;;;;15.30;7.13;;;;;;;-148.16;100.00;58328.31;4880905;29;20053;-67
2021/12/11 12:05:49;;;;;;;15.85;7.00;;;;;;;-148.16;100.00;58328.31;4879686;29;20481;-67
2021/12/11 12:08:37;;;;;;;16.52;6.78;;;;;;;-148.16;100.00;58328.31;4881067;29;20045;-65
2021/12/11 12:11:26;;;;;;;16.85;7.75;;;;;;;-148.16;100.00;58328.31;4879488;29;20048;-69
2021/12/11 12:14:19;;;;;;;17.88;8.38;;;;;;;-148.16;100.00;58328.31;4880450;29;20045;-66
2021/12/11 12:17:07;;;;;;;23.05;9.05;;;;;;;-148.16;100.00;58328.31;4884848;29;20049;-63
2021/12/11 12:19:54;;;;;;;30.40;9.90;;;;;;;-148.16;100.00;58328.31;4879388;29;20048;-61
2021/12/11 12:22:44;;;;;;;24.17;10.40;;;;;;;-148.16;100.00;58328.31;4879357;29;20044;-70
2021/12/11 12:25:30;;;;;;;25.58;10.07;;;;;;;-148.16;100.00;58328.31;4867647;29;20060;-72
2021/12/11 12:28:17;;;;;;;24.60;10.07;;;;;;;-148.16;100.00;58328.31;4881649;29;20049;-69
2021/12/11 12:31:08;;;;;;;22.13;9.13;;;;;;;-148.16;100.00;58328.31;4880462;29;20401;-70
2021/12/11 12:33:55;;;;;;;19.67;8.45;;;;;;;-148.16;100.00;58328.31;4880445;29;20053;-71
2021/12/11 12:36:44;;;;;;;17.60;7.88;;;;;;;-148.16;100.00;58328.31;4880509;29;20057;-64
2021/12/11 12:39:38;;;;;;;16.23;6.90;;;;;;;-148.16;100.00;58328.31;4869303;29;21764;-60
2021/12/11 12:42:51;;;;;;;11.73;5.82;;;;;;;-148.16;100.00;58328.31;4865066;29;20049;-66
2021/12/11 12:45:47;;;;;;;13.65;6.15;;;;;;;-148.16;100.00;58328.31;4869668;29;20045;-67
2021/12/11 12:48:33;;;;;;;11.75;5.30;;;;;;;-148.16;100.00;58328.31;4880064;29;20160;-70
2021/12/11 12:51:19;;;;;;;19.95;7.63;;;;;;;-148.16;100.00;58328.31;4878594;29;20049;-63
2021/12/11 12:54:09;;;;;;;16.40;6.22;;;;;;;-148.16;100.00;58328.31;4881101;29;20037;-64
2021/12/11 12:57:12;;;;;;;14.07;6.10;;;;;;;-148.16;100.00;58328.31;4879335;29;20045;-69
2021/12/11 13:00:13;;;;;;;18.73;5.75;;;;;;;-148.16;100.00;58328.31;4884761;29;20497;-66